createdAt,value
2023-02-18T00:00:35.052Z,9.63
2023-02-18T00:03:27.694Z,9.66
2023-02-18T00:06:00.392Z,9.65
2023-02-18T00:08:33.194Z,9.65
2023-02-18T00:11:08.166Z,9.70
2023-02-18T00:13:41.057Z,9.64
2023-02-18T00:16:15.451Z,9.65
2023-02-18T00:18:47.979Z,9.59
2023-02-18T00:21:20.640Z,9.61
2023-02-18T00:23:53.096Z,9.66
2023-02-18T00:26:26.315Z,9.68
2023-02-18T00:28:59.999Z,9.59
2023-02-18T00:31:34.503Z,9.56
2023-02-18T00:34:07.929Z,9.53
2023-02-18T00:36:41.148Z,9.53
2023-02-18T00:39:14.226Z,9.58
2023-02-18T00:41:46.956Z,9.56
2023-02-18T00:44:20.793Z,9.56
2023-02-18T00:46:55.652Z,9.51
2023-02-18T00:49:28.754Z,9.44
2023-02-18T00:52:01.140Z,9.46
2023-02-18T00:54:33.442Z,9.41
2023-02-18T00:57:06.363Z,9.38
2023-02-18T00:59:38.678Z,9.28
2023-02-18T01:02:12.331Z,9.23
2023-02-18T01:04:44.734Z,9.15
2023-02-18T01:07:17.426Z,9.17
2023-02-18T01:09:49.798Z,9.11
2023-02-18T01:12:22.550Z,9.16
2023-02-18T01:14:55.127Z,9.17
2023-02-18T01:17:27.676Z,9.03
2023-02-18T01:20:00.924Z,9.14
2023-02-18T01:22:33.634Z,9.15
2023-02-18T01:25:06.465Z,9.17
2023-02-18T01:27:39.804Z,9.16
2023-02-18T01:30:17.904Z,9.14
2023-02-18T01:32:50.666Z,9.14
2023-02-18T01:35:24.232Z,9.12
2023-02-18T01:37:57.127Z,9.06
2023-02-18T01:40:31.801Z,9.01
2023-02-18T01:43:05.397Z,9.06
2023-02-18T01:46:07.395Z,9.15
2023-02-18T01:48:43.752Z,9.10
2023-02-18T01:51:20.207Z,9.09
2023-02-18T01:53:57.577Z,8.99
2023-02-18T01:56:36.094Z,9.02
2023-02-18T01:59:11.871Z,9.06
2023-02-18T02:01:47.099Z,9.14
2023-02-18T02:04:21.414Z,9.07
2023-02-18T02:06:57.187Z,8.91
2023-02-18T02:09:32.644Z,8.91
2023-02-18T02:12:45.252Z,8.60
2023-02-18T02:15:35.142Z,8.95
2023-02-18T02:18:28.794Z,8.94
2023-02-18T02:21:45.936Z,8.99
2023-02-18T02:25:06.528Z,9.00
2023-02-18T02:27:59.543Z,8.82
2023-02-18T02:30:58.221Z,8.75
2023-02-18T02:34:04.248Z,8.87
2023-02-18T02:36:44.162Z,8.99
2023-02-18T02:39:27.917Z,9.00
2023-02-18T02:42:11.181Z,8.93
2023-02-18T02:44:49.727Z,8.80
2023-02-18T02:47:28.760Z,8.82
2023-02-18T02:50:08.094Z,8.70
2023-02-18T02:52:48.125Z,8.73
2023-02-18T02:55:20.570Z,8.82
2023-02-18T02:57:55.531Z,8.80
2023-02-18T03:00:40.079Z,8.86
2023-02-18T03:03:34.742Z,8.78
2023-02-18T03:06:32.786Z,8.80
2023-02-18T03:09:17.366Z,8.77
2023-02-18T03:11:59.707Z,8.68
2023-02-18T03:14:42.717Z,8.89
2023-02-18T03:17:23.166Z,8.93
2023-02-18T03:20:09.839Z,9.00
2023-02-18T03:22:47.483Z,8.90
2023-02-18T03:25:24.570Z,8.80
2023-02-18T03:28:01.426Z,8.80
2023-02-18T03:30:38.322Z,8.76
2023-02-18T03:33:13.622Z,8.75
2023-02-18T03:35:51.040Z,8.71
2023-02-18T03:38:26.268Z,8.70
2023-02-18T03:40:59.195Z,8.67
2023-02-18T03:43:31.988Z,8.71
2023-02-18T03:46:06.256Z,8.65
2023-02-18T03:48:38.760Z,8.69
2023-02-18T03:51:11.437Z,8.71
2023-02-18T03:53:46.053Z,8.65
2023-02-18T03:56:19.668Z,8.52
2023-02-18T03:58:52.157Z,8.56
2023-02-18T04:01:25.284Z,8.57
2023-02-18T04:03:57.854Z,8.58
2023-02-18T04:06:30.781Z,8.69
2023-02-18T04:09:08.826Z,8.80
2023-02-18T04:11:42.413Z,8.45
2023-02-18T04:14:16.193Z,8.64
2023-02-18T04:16:50.125Z,8.61
2023-02-18T04:19:22.632Z,8.56
2023-02-18T04:21:55.080Z,8.61
2023-02-18T04:24:29.093Z,8.53
2023-02-18T04:27:01.671Z,8.53
2023-02-18T04:29:34.145Z,8.18
2023-02-18T04:32:06.906Z,8.48
2023-02-18T04:34:39.271Z,8.51
2023-02-18T04:37:14.552Z,8.59
2023-02-18T04:39:45.174Z,8.59
2023-02-18T04:42:17.519Z,8.61
2023-02-18T04:44:50.083Z,8.55
2023-02-18T04:47:22.843Z,8.52
2023-02-18T04:49:55.601Z,8.59
2023-02-18T04:52:31.695Z,8.61
2023-02-18T04:55:04.085Z,8.50
2023-02-18T04:57:36.485Z,8.49
2023-02-18T05:00:12.509Z,8.49
2023-02-18T05:02:45.582Z,8.43
2023-02-18T05:05:18.507Z,8.41
2023-02-18T05:07:51.255Z,8.41
2023-02-18T05:10:23.871Z,8.50
2023-02-18T05:12:57.266Z,8.58
2023-02-18T05:15:30.034Z,8.44
2023-02-18T05:18:03.155Z,8.44
2023-02-18T05:20:36.180Z,8.42
2023-02-18T05:23:08.565Z,8.30
2023-02-18T05:25:40.936Z,8.38
2023-02-18T05:28:13.344Z,8.26
2023-02-18T05:30:46.666Z,8.33
2023-02-18T05:33:19.667Z,8.35
2023-02-18T05:35:52.573Z,8.38
2023-02-18T05:38:25.615Z,8.28
2023-02-18T05:40:58.214Z,8.27
2023-02-18T05:43:30.739Z,8.26
2023-02-18T05:46:03.222Z,8.37
2023-02-18T05:48:35.917Z,8.26
2023-02-18T05:51:09.008Z,8.19
2023-02-18T05:53:43.687Z,8.25
2023-02-18T05:56:16.158Z,8.20
2023-02-18T05:58:48.876Z,8.28
2023-02-18T06:01:21.333Z,8.22
2023-02-18T06:03:53.994Z,8.24
2023-02-18T06:06:28.892Z,8.24
2023-02-18T06:09:04.355Z,8.22
2023-02-18T06:11:36.933Z,8.11
2023-02-18T06:14:10.929Z,8.05
2023-02-18T06:16:44.878Z,8.18
2023-02-18T06:19:17.400Z,8.17
2023-02-18T06:21:49.760Z,8.13
2023-02-18T06:24:22.338Z,8.31
2023-02-18T06:26:54.850Z,8.32
2023-02-18T06:29:29.910Z,8.37
2023-02-18T06:32:02.976Z,8.26
2023-02-18T06:34:35.848Z,8.18
2023-02-18T06:37:08.314Z,8.29
2023-02-18T06:39:42.094Z,8.21
2023-02-18T06:42:15.437Z,8.28
2023-02-18T06:44:47.786Z,8.32
2023-02-18T06:47:20.481Z,8.35
2023-02-18T06:49:53.082Z,8.27
2023-02-18T06:52:25.404Z,8.30
2023-02-18T06:54:58.617Z,8.39
2023-02-18T06:57:31.230Z,8.40
2023-02-18T07:00:03.797Z,8.34
2023-02-18T07:02:36.338Z,8.47
2023-02-18T07:05:09.601Z,8.54
2023-02-18T07:07:42.033Z,8.40
2023-02-18T07:10:15.032Z,8.37
2023-02-18T07:12:47.302Z,8.47
2023-02-18T07:15:24.351Z,8.23
2023-02-18T07:17:56.848Z,8.27
2023-02-18T07:20:29.995Z,8.31
2023-02-18T07:23:02.407Z,8.31
2023-02-18T07:25:34.927Z,8.20
2023-02-18T07:28:07.633Z,8.34
2023-02-18T07:30:40.341Z,8.19
2023-02-18T07:33:14.217Z,8.41
2023-02-18T07:35:47.091Z,8.49
2023-02-18T07:38:19.470Z,8.51
2023-02-18T07:40:52.900Z,8.60
2023-02-18T07:43:25.464Z,8.58
2023-02-18T07:45:57.868Z,8.35
2023-02-18T07:48:30.270Z,8.47
2023-02-18T07:51:06.457Z,8.65
2023-02-18T07:53:39.713Z,8.64
2023-02-18T07:56:12.275Z,8.63
2023-02-18T07:58:44.806Z,8.71
2023-02-18T08:01:17.681Z,8.73
2023-02-18T08:03:50.143Z,8.74
2023-02-18T08:06:27.448Z,8.56
2023-02-18T08:09:00.230Z,8.80
2023-02-18T08:11:33.722Z,8.84
2023-02-18T08:14:06.435Z,8.87
2023-02-18T08:16:39.559Z,8.88
2023-02-18T08:19:12.260Z,8.84
2023-02-18T08:21:46.358Z,8.93
2023-02-18T08:24:18.994Z,9.03
2023-02-18T08:27:00.507Z,9.04
2023-02-18T08:29:33.624Z,9.11
2023-02-18T08:32:06.580Z,8.93
2023-02-18T08:34:39.042Z,9.16
2023-02-18T08:37:11.777Z,9.10
2023-02-18T08:39:44.211Z,9.12
2023-02-18T08:42:18.568Z,9.17
2023-02-18T08:44:51.160Z,9.20
2023-02-18T08:48:17.325Z,9.25
2023-02-18T08:50:16.223Z,9.34
2023-02-18T08:52:48.790Z,9.29
2023-02-18T08:55:21.880Z,9.33
2023-02-18T08:57:54.709Z,9.49
2023-02-18T09:00:28.558Z,9.40
2023-02-18T09:03:01.350Z,9.41
2023-02-18T09:05:34.057Z,9.51
2023-02-18T09:08:06.697Z,9.55
2023-02-18T09:10:39.760Z,9.48
2023-02-18T09:13:13.006Z,9.58
2023-02-18T09:15:45.450Z,9.67
2023-02-18T09:18:17.919Z,9.70
2023-02-18T09:20:50.869Z,9.85
2023-02-18T09:23:23.656Z,9.95
2023-02-18T09:25:56.479Z,9.90
2023-02-18T09:28:29.477Z,9.89
2023-02-18T09:31:07.948Z,9.84
2023-02-18T09:33:43.298Z,9.79
2023-02-18T09:36:18.181Z,9.93
2023-02-18T09:38:51.555Z,9.70
2023-02-18T09:41:31.650Z,9.76
2023-02-18T09:44:07.270Z,9.94
2023-02-18T09:46:44.550Z,9.96
2023-02-18T09:49:20.651Z,10.09
2023-02-18T09:51:53.301Z,10.17
2023-02-18T09:54:28.234Z,10.22
2023-02-18T09:57:02.294Z,10.32
2023-02-18T09:59:35.159Z,10.37
2023-02-18T10:02:17.511Z,10.33
2023-02-18T10:04:52.855Z,10.33
2023-02-18T10:07:28.893Z,10.39
2023-02-18T10:10:12.964Z,10.44
2023-02-18T10:12:46.451Z,10.54
2023-02-18T10:15:25.403Z,10.49
2023-02-18T10:17:59.572Z,10.68
2023-02-18T10:20:34.257Z,10.64
2023-02-18T10:23:07.026Z,10.67
2023-02-18T10:25:46.390Z,10.79
2023-02-18T10:28:24.145Z,10.84
2023-02-18T10:31:03.692Z,10.96
2023-02-18T10:33:44.203Z,11.05
2023-02-18T10:36:26.879Z,11.14
2023-02-18T10:39:32.286Z,11.36
2023-02-18T10:42:16.816Z,11.42
2023-02-18T10:45:00.309Z,11.44
2023-02-18T10:47:44.302Z,11.23
2023-02-18T10:50:24.999Z,11.38
2023-02-18T10:53:01.328Z,11.44
2023-02-18T10:55:43.136Z,11.27
2023-02-18T10:58:35.675Z,11.43
2023-02-18T11:01:15.113Z,11.27
2023-02-18T11:03:49.382Z,11.19
2023-02-18T11:06:29.542Z,11.30
2023-02-18T11:09:03.493Z,11.39
2023-02-18T11:11:39.664Z,11.38
2023-02-18T11:14:19.434Z,11.20
2023-02-18T11:16:55.435Z,11.30
2023-02-18T11:19:39.289Z,11.39
2023-02-18T11:22:20.613Z,11.09
2023-02-18T11:24:57.665Z,10.94
2023-02-18T11:27:39.576Z,10.95
2023-02-18T11:30:22.801Z,11.01
2023-02-18T11:32:58.917Z,11.00
2023-02-18T11:35:33.652Z,10.91
2023-02-18T11:38:23.327Z,10.79
2023-02-18T11:40:59.134Z,10.64
2023-02-18T11:43:35.679Z,10.55
2023-02-18T11:46:16.497Z,10.65
2023-02-18T11:48:49.309Z,10.35
2023-02-18T11:51:25.178Z,10.29
2023-02-18T11:54:06.146Z,10.24
2023-02-18T11:56:39.523Z,10.44
2023-02-18T11:59:14.059Z,10.40
2023-02-18T12:01:52.362Z,10.34
2023-02-18T12:04:31.113Z,10.27
2023-02-18T12:07:18.448Z,10.31
2023-02-18T12:09:56.669Z,10.23
2023-02-18T12:12:32.320Z,9.97
2023-02-18T12:15:04.864Z,9.87
2023-02-18T12:18:00.670Z,9.70
2023-02-18T12:20:56.080Z,9.64
2023-02-18T12:23:34.537Z,9.83
2023-02-18T12:26:18.299Z,9.66
2023-02-18T12:29:06.464Z,9.64
2023-02-18T12:31:56.562Z,9.54
2023-02-18T12:34:53.583Z,9.45
2023-02-18T12:37:46.730Z,9.37
2023-02-18T12:40:39.869Z,9.60
2023-02-18T12:43:24.129Z,9.72
2023-02-18T12:46:16.194Z,9.66
2023-02-18T12:49:05.167Z,9.40
2023-02-18T12:51:46.365Z,9.34
2023-02-18T12:54:42.635Z,9.20
2023-02-18T12:57:39.660Z,9.23
2023-02-18T13:00:38.299Z,9.34
2023-02-18T13:03:51.410Z,9.10
2023-02-18T13:06:49.741Z,9.20
2023-02-18T13:09:34.291Z,9.14
2023-02-18T13:12:12.440Z,8.90
2023-02-18T13:14:51.713Z,8.99
2023-02-18T13:17:26.606Z,8.92
2023-02-18T13:20:04.181Z,8.91
2023-02-18T13:22:37.417Z,8.88
2023-02-18T13:25:16.328Z,8.67
2023-02-18T13:27:55.349Z,8.79
2023-02-18T13:30:35.831Z,8.85
2023-02-18T13:33:18.932Z,8.89
2023-02-18T13:35:59.790Z,8.84
2023-02-18T13:38:57.084Z,8.83
2023-02-18T13:41:30.409Z,8.71
2023-02-18T13:44:02.934Z,8.79
2023-02-18T13:46:51.110Z,8.59
2023-02-18T13:49:25.928Z,8.74
2023-02-18T13:52:00.024Z,8.74
2023-02-18T13:54:36.947Z,8.68
2023-02-18T13:57:15.393Z,8.75
2023-02-18T13:59:51.328Z,8.69
2023-02-18T14:02:36.211Z,8.63
2023-02-18T14:05:21.637Z,8.60
2023-02-18T14:08:07.361Z,8.58
2023-02-18T14:10:40.815Z,8.52
2023-02-18T14:13:40.056Z,8.56
2023-02-18T14:16:13.313Z,8.57
2023-02-18T14:19:03.346Z,8.58
2023-02-18T14:21:43.956Z,8.57
2023-02-18T14:24:36.392Z,8.58
2023-02-18T14:27:18.076Z,8.64
2023-02-18T14:29:55.382Z,8.64
2023-02-18T14:32:28.089Z,8.70
2023-02-18T14:35:22.006Z,8.67
2023-02-18T14:38:42.296Z,8.67
2023-02-18T14:41:38.105Z,8.72
2023-02-18T14:44:30.843Z,8.79
2023-02-18T14:47:26.942Z,8.84
2023-02-18T14:50:01.231Z,8.84
2023-02-18T14:52:40.140Z,8.84
2023-02-18T14:55:20.900Z,8.90
2023-02-18T14:57:56.946Z,8.78
2023-02-18T15:00:34.416Z,8.89
2023-02-18T15:03:14.038Z,8.91
2023-02-18T15:05:47.510Z,8.91
2023-02-18T15:08:21.769Z,8.93
2023-02-18T15:10:59.268Z,8.91
2023-02-18T15:13:36.222Z,8.87
2023-02-18T15:16:11.509Z,8.85
2023-02-18T15:18:50.320Z,8.85
2023-02-18T15:21:29.019Z,8.89
2023-02-18T15:24:10.092Z,8.78
2023-02-18T15:26:49.207Z,8.87
2023-02-18T15:29:25.400Z,8.74
2023-02-18T15:32:00.948Z,8.74
2023-02-18T15:34:41.180Z,8.83
2023-02-18T15:37:16.062Z,8.87
2023-02-18T15:39:49.119Z,8.78
2023-02-18T15:42:29.503Z,8.76
2023-02-18T15:45:06.798Z,8.70
2023-02-18T15:47:45.721Z,8.69
2023-02-18T15:50:23.665Z,8.67
2023-02-18T15:52:58.541Z,8.66
2023-02-18T15:55:36.295Z,8.60
2023-02-18T15:58:14.556Z,8.61
2023-02-18T16:00:52.503Z,8.58
2023-02-18T16:03:27.961Z,8.56
2023-02-18T16:06:19.039Z,8.62
2023-02-18T16:09:02.205Z,8.58
2023-02-18T16:11:39.208Z,8.52
2023-02-18T16:14:26.612Z,8.52
2023-02-18T16:17:16.013Z,8.52
2023-02-18T16:20:03.873Z,8.47
2023-02-18T16:22:44.808Z,8.47
2023-02-18T16:25:23.326Z,8.38
2023-02-18T16:28:06.591Z,8.37
2023-02-18T16:30:41.542Z,8.22
2023-02-18T16:33:14.309Z,8.30
2023-02-18T16:35:50.339Z,8.32
2023-02-18T16:38:26.004Z,8.32
2023-02-18T16:40:58.655Z,8.30
2023-02-18T16:43:33.246Z,8.33
2023-02-18T16:46:15.888Z,8.20
2023-02-18T16:48:52.199Z,8.29
2023-02-18T16:51:27.743Z,8.30
2023-02-18T16:54:00.369Z,8.22
2023-02-18T16:56:35.999Z,8.27
2023-02-18T16:59:09.046Z,8.17
2023-02-18T17:01:44.912Z,8.20
2023-02-18T17:04:21.228Z,8.31
2023-02-18T17:06:53.896Z,8.32
2023-02-18T17:09:27.667Z,8.32
2023-02-18T17:12:02.026Z,8.29
2023-02-18T17:14:34.939Z,8.22
2023-02-18T17:17:14.991Z,8.33
2023-02-18T17:19:47.464Z,8.26
2023-02-18T17:22:19.807Z,8.35
2023-02-18T17:24:52.336Z,8.28
2023-02-18T17:27:24.783Z,8.25
2023-02-18T17:29:57.745Z,8.30
2023-02-18T17:32:30.502Z,8.32
2023-02-18T17:35:03.162Z,8.32
2023-02-18T17:37:35.888Z,8.35
2023-02-18T17:40:10.888Z,8.41
2023-02-18T17:42:43.555Z,8.38
2023-02-18T17:45:28.906Z,8.32
2023-02-18T17:48:02.674Z,8.26
2023-02-18T17:50:35.419Z,8.23
2023-02-18T17:53:10.654Z,8.19
2023-02-18T17:55:44.488Z,8.21
2023-02-18T17:58:18.692Z,8.27
2023-02-18T18:00:52.854Z,8.26
2023-02-18T18:03:25.588Z,8.28
2023-02-18T18:05:58.927Z,8.21
2023-02-18T18:08:31.676Z,8.11
2023-02-18T18:11:05.969Z,8.08
2023-02-18T18:13:38.929Z,7.96
2023-02-18T18:16:13.381Z,7.98
2023-02-18T18:18:46.432Z,7.83
2023-02-18T18:21:23.378Z,7.89
2023-02-18T18:23:56.438Z,7.87
2023-02-18T18:26:30.126Z,7.86
2023-02-18T18:29:02.818Z,7.86
2023-02-18T18:31:36.933Z,7.86
2023-02-18T18:34:10.924Z,7.82
2023-02-18T18:36:45.227Z,7.79
2023-02-18T18:39:17.879Z,7.75
2023-02-18T18:41:52.986Z,7.75
2023-02-18T18:44:26.201Z,7.79
2023-02-18T18:46:58.840Z,7.90
2023-02-18T18:49:31.212Z,7.84
2023-02-18T18:52:04.553Z,7.87
2023-02-18T18:54:37.529Z,7.88
2023-02-18T18:57:10.566Z,7.88
2023-02-18T18:59:43.280Z,7.87
2023-02-18T19:02:18.679Z,7.84
2023-02-18T19:04:51.676Z,7.80
2023-02-18T19:07:24.629Z,7.85
2023-02-18T19:09:57.389Z,7.81
2023-02-18T19:12:30.140Z,7.78
2023-02-18T19:15:03.345Z,7.79
2023-02-18T19:17:35.880Z,7.73
2023-02-18T19:20:13.437Z,7.67
2023-02-18T19:22:46.012Z,7.81
2023-02-18T19:25:19.834Z,7.73
2023-02-18T19:27:53.023Z,7.74
2023-02-18T19:30:27.638Z,7.76
2023-02-18T19:33:02.904Z,7.75
2023-02-18T19:35:37.405Z,7.75
2023-02-18T19:38:12.734Z,7.79
2023-02-18T19:40:46.739Z,7.79
2023-02-18T19:43:19.407Z,7.73
2023-02-18T19:45:52.152Z,7.60
2023-02-18T19:48:25.085Z,7.76
2023-02-18T19:50:57.561Z,7.85
2023-02-18T19:53:30.819Z,7.89
2023-02-18T19:56:06.377Z,7.79
2023-02-18T19:58:41.141Z,7.81
2023-02-18T20:01:15.788Z,7.66
2023-02-18T20:03:48.618Z,7.74
2023-02-18T20:06:22.251Z,7.74
2023-02-18T20:08:55.282Z,7.75
2023-02-18T20:11:28.500Z,7.83
2023-02-18T20:14:01.077Z,7.83
2023-02-18T20:16:33.743Z,7.85
2023-02-18T20:19:06.275Z,7.79
2023-02-18T20:21:39.203Z,7.76
2023-02-18T20:24:12.843Z,7.75
2023-02-18T20:26:45.775Z,7.76
2023-02-18T20:29:22.133Z,7.70
2023-02-18T20:31:55.226Z,7.61
2023-02-18T20:34:27.991Z,7.63
2023-02-18T20:37:00.672Z,7.63
2023-02-18T20:39:33.374Z,7.59
2023-02-18T20:42:15.830Z,7.54
2023-02-18T20:44:49.696Z,7.72
2023-02-18T20:47:22.109Z,7.60
2023-02-18T20:49:54.679Z,7.49
2023-02-18T20:52:27.910Z,7.43
2023-02-18T20:55:00.619Z,7.52
2023-02-18T20:57:34.475Z,7.61
2023-02-18T21:00:08.461Z,7.58
2023-02-18T21:02:41.344Z,7.50
2023-02-18T21:05:14.097Z,7.47
2023-02-18T21:07:46.879Z,7.48
2023-02-18T21:10:21.472Z,7.32
2023-02-18T21:12:54.159Z,7.37
2023-02-18T21:15:26.677Z,7.47
2023-02-18T21:17:59.886Z,7.43
2023-02-18T21:20:32.523Z,7.34
2023-02-18T21:23:05.636Z,7.35
2023-02-18T21:25:40.874Z,7.38
2023-02-18T21:28:15.792Z,7.31
2023-02-18T21:30:48.840Z,7.18
2023-02-18T21:33:21.279Z,7.15
2023-02-18T21:35:53.954Z,7.17
2023-02-18T21:38:26.681Z,7.17
2023-02-18T21:40:59.420Z,7.20
2023-02-18T21:43:32.561Z,7.25
2023-02-18T21:46:15.584Z,6.89
2023-02-18T21:49:05.370Z,7.06
2023-02-18T21:52:00.576Z,7.17
2023-02-18T21:54:32.073Z,7.10
2023-02-18T21:57:07.187Z,7.19
2023-02-18T21:59:40.356Z,7.19
2023-02-18T22:02:18.186Z,7.15
2023-02-18T22:04:51.746Z,7.12
2023-02-18T22:07:26.481Z,7.14
2023-02-18T22:09:57.270Z,7.13
2023-02-18T22:12:32.251Z,7.14
2023-02-18T22:15:05.508Z,7.27
2023-02-18T22:17:39.534Z,7.27
2023-02-18T22:20:13.571Z,7.30
2023-02-18T22:22:46.114Z,7.17
2023-02-18T22:25:18.675Z,7.31
2023-02-18T22:27:51.718Z,7.34
2023-02-18T22:30:24.225Z,7.20
2023-02-18T22:32:56.742Z,7.19
2023-02-18T22:35:29.391Z,7.18
2023-02-18T22:38:01.925Z,7.07
2023-02-18T22:40:34.533Z,7.15
2023-02-18T22:43:07.420Z,7.08
2023-02-18T22:45:40.224Z,7.16
2023-02-18T22:48:12.920Z,7.10
2023-02-18T22:50:45.299Z,7.06
2023-02-18T22:53:17.849Z,7.03
2023-02-18T22:55:50.225Z,7.11
2023-02-18T22:58:22.854Z,7.08
2023-02-18T23:00:55.256Z,7.13
2023-02-18T23:03:29.489Z,7.09
2023-02-18T23:06:06.212Z,7.02
2023-02-18T23:08:38.652Z,7.13
2023-02-18T23:11:14.545Z,7.15
2023-02-18T23:14:08.620Z,7.19
2023-02-18T23:16:55.740Z,7.22
2023-02-18T23:19:31.567Z,7.17
2023-02-18T23:22:09.110Z,7.10
2023-02-18T23:24:43.900Z,7.07
2023-02-18T23:27:18.489Z,7.08
2023-02-18T23:29:51.153Z,7.13
2023-02-18T23:32:23.576Z,7.14
2023-02-18T23:34:56.122Z,7.14
2023-02-18T23:37:44.021Z,7.12
2023-02-18T23:40:17.782Z,7.14
2023-02-18T23:42:50.289Z,7.23
2023-02-18T23:45:23.347Z,7.25
2023-02-18T23:47:56.160Z,7.18
2023-02-18T23:50:28.863Z,7.09
2023-02-18T23:53:01.556Z,7.17
2023-02-18T23:55:34.070Z,7.24
2023-02-18T23:58:06.494Z,7.28
